createdAt,value
2018-05-17T00:02:25.535Z,93.30
2018-05-17T00:04:53.786Z,93.40
2018-05-17T00:07:22.088Z,93.50
2018-05-17T00:09:50.368Z,93.60
2018-05-17T00:12:18.615Z,93.70
2018-05-17T00:14:46.871Z,93.70
2018-05-17T00:17:15.894Z,93.90
2018-05-17T00:19:44.147Z,93.90
2018-05-17T00:22:12.408Z,94.00
2018-05-17T00:24:41.421Z,94.10
2018-05-17T00:27:09.670Z,94.10
2018-05-17T00:29:38.715Z,94.20
2018-05-17T00:32:06.986Z,94.20
2018-05-17T00:34:35.231Z,94.20
2018-05-17T00:37:03.482Z,94.20
2018-05-17T00:39:31.756Z,94.30
2018-05-17T00:42:00.087Z,94.20
2018-05-17T00:44:28.335Z,94.40
2018-05-17T00:46:56.616Z,94.50
2018-05-17T00:49:24.919Z,94.40
2018-05-17T00:51:53.170Z,94.50
2018-05-17T00:54:21.465Z,94.40
2018-05-17T00:56:49.742Z,94.40
2018-05-17T00:59:17.999Z,94.40
2018-05-17T01:01:46.290Z,94.40
2018-05-17T01:04:14.547Z,94.40
2018-05-17T01:06:43.119Z,94.30
2018-05-17T01:09:12.126Z,94.40
2018-05-17T01:11:40.415Z,94.40
2018-05-17T01:14:08.691Z,94.50
2018-05-17T01:16:36.950Z,94.40
2018-05-17T01:19:05.244Z,94.50
2018-05-17T01:21:33.537Z,94.60
2018-05-17T01:24:01.795Z,94.60
2018-05-17T01:26:30.054Z,94.50
2018-05-17T01:28:58.356Z,94.50
2018-05-17T01:31:26.625Z,94.40
2018-05-17T01:33:54.896Z,94.30
2018-05-17T01:36:23.144Z,94.40
2018-05-17T01:38:52.281Z,94.50
2018-05-17T01:41:20.531Z,94.40
2018-05-17T01:43:48.796Z,94.50
2018-05-17T01:46:17.103Z,94.60
2018-05-17T01:48:45.364Z,94.70
2018-05-17T01:51:13.661Z,94.80
2018-05-17T01:53:41.932Z,94.80
2018-05-17T01:56:10.187Z,94.80
2018-05-17T01:58:38.461Z,94.90
2018-05-17T02:01:06.729Z,95.00
2018-05-17T02:03:35.018Z,95.00
2018-05-17T02:06:04.405Z,95.00
2018-05-17T02:08:33.404Z,95.00
2018-05-17T02:11:01.708Z,95.00
2018-05-17T02:13:29.971Z,95.20
2018-05-17T02:15:58.252Z,95.20
2018-05-17T02:18:26.528Z,95.20
2018-05-17T02:20:54.800Z,95.30
2018-05-17T02:23:23.055Z,95.40
2018-05-17T02:25:51.360Z,95.40
2018-05-17T02:28:19.623Z,95.40
2018-05-17T02:30:47.915Z,95.40
2018-05-17T02:33:16.176Z,95.40
2018-05-17T02:35:44.454Z,95.50
2018-05-17T02:38:12.705Z,95.40
2018-05-17T02:40:41.010Z,95.20
2018-05-17T02:43:09.288Z,95.30
2018-05-17T02:45:37.601Z,95.30
2018-05-17T02:48:05.841Z,95.30
2018-05-17T02:50:34.212Z,95.40
2018-05-17T02:53:02.487Z,95.30
2018-05-17T02:55:30.755Z,95.40
2018-05-17T02:57:59.016Z,95.40
2018-05-17T03:00:27.326Z,95.40
2018-05-17T03:02:55.590Z,95.30
2018-05-17T03:05:23.864Z,95.30
2018-05-17T03:07:52.128Z,95.40
2018-05-17T03:10:20.416Z,95.30
2018-05-17T03:12:48.672Z,95.30
2018-05-17T03:15:16.940Z,95.30
2018-05-17T03:17:45.192Z,95.30
2018-05-17T03:20:14.236Z,95.40
2018-05-17T03:22:42.496Z,95.40
2018-05-17T03:25:10.784Z,95.40
2018-05-17T03:27:39.064Z,95.30
2018-05-17T03:30:07.332Z,95.30
2018-05-17T03:32:35.583Z,95.30
2018-05-17T03:35:03.873Z,95.30
2018-05-17T03:37:32.132Z,95.30
2018-05-17T03:40:00.395Z,95.20
2018-05-17T03:42:29.433Z,94.90
2018-05-17T03:44:57.688Z,94.90
2018-05-17T03:47:25.960Z,94.70
2018-05-17T03:49:54.255Z,94.70
2018-05-17T03:52:22.525Z,94.40
2018-05-17T03:54:50.816Z,94.40
2018-05-17T03:57:19.086Z,94.30
2018-05-17T03:59:47.349Z,94.40
2018-05-17T04:02:27.880Z,94.30
2018-05-17T04:05:09.521Z,93.90
2018-05-17T04:07:37.788Z,93.90
2018-05-17T04:10:06.059Z,93.70
2018-05-17T04:12:34.344Z,93.60
2018-05-17T04:15:02.609Z,93.40
2018-05-17T04:17:30.881Z,93.20
2018-05-17T04:19:59.135Z,93.00
2018-05-17T04:22:27.439Z,92.70
2018-05-17T04:24:55.712Z,92.60
2018-05-17T04:27:23.980Z,92.30
2018-05-17T04:29:52.264Z,92.10
2018-05-17T04:32:20.543Z,91.90
2018-05-17T04:34:48.823Z,91.40
2018-05-17T04:37:17.083Z,91.30
2018-05-17T04:39:45.371Z,91.20
2018-05-17T04:42:13.644Z,91.30
2018-05-17T04:44:41.900Z,91.30
2018-05-17T04:47:10.214Z,91.20
2018-05-17T04:49:38.436Z,91.10
2018-05-17T04:52:06.710Z,91.00
2018-05-17T04:54:34.979Z,90.60
2018-05-17T04:57:04.015Z,90.00
2018-05-17T04:59:32.273Z,90.00
2018-05-17T05:02:00.537Z,89.70
2018-05-17T05:04:28.799Z,89.20
2018-05-17T05:06:57.059Z,88.60
2018-05-17T05:09:25.358Z,88.80
2018-05-17T05:11:53.596Z,88.30
2018-05-17T05:14:21.861Z,87.50
2018-05-17T05:16:50.108Z,86.40
2018-05-17T05:19:18.377Z,85.90
2018-05-17T05:21:46.687Z,84.70
2018-05-17T05:24:14.942Z,83.90
2018-05-17T05:26:43.220Z,82.90
2018-05-17T05:29:11.499Z,83.00
2018-05-17T05:31:39.797Z,81.70
2018-05-17T05:34:08.035Z,81.10
2018-05-17T05:36:36.289Z,79.90
2018-05-17T05:39:05.363Z,80.70
2018-05-17T05:41:33.693Z,80.60
2018-05-17T05:44:01.968Z,79.50
2018-05-17T05:46:30.244Z,77.60
2018-05-17T05:48:58.504Z,76.40
2018-05-17T05:51:26.759Z,74.60
2018-05-17T05:53:55.027Z,72.80
2018-05-17T05:56:24.059Z,69.30
2018-05-17T05:58:52.380Z,69.20
2018-05-17T06:01:20.621Z,68.50
2018-05-17T06:03:48.888Z,67.40
2018-05-17T06:06:17.181Z,66.80
2018-05-17T06:08:45.440Z,67.80
2018-05-17T06:11:13.694Z,67.50
2018-05-17T06:13:41.992Z,67.50
2018-05-17T06:16:10.257Z,67.00
2018-05-17T06:18:38.503Z,66.40
2018-05-17T06:21:07.549Z,65.10
2018-05-17T06:23:35.795Z,65.10
2018-05-17T06:26:04.060Z,63.70
2018-05-17T06:28:32.373Z,62.20
2018-05-17T06:31:00.735Z,60.70
2018-05-17T06:33:29.011Z,60.90
2018-05-17T06:35:57.288Z,60.70
2018-05-17T06:38:25.565Z,59.80
2018-05-17T06:40:53.820Z,59.00
2018-05-17T06:43:22.126Z,60.00
2018-05-17T06:45:50.389Z,61.70
2018-05-17T06:48:18.653Z,62.00
2018-05-17T06:50:46.958Z,62.20
2018-05-17T06:53:15.202Z,63.10
2018-05-17T06:55:43.499Z,63.30
2018-05-17T06:58:11.769Z,64.70
2018-05-17T07:00:40.204Z,65.20
2018-05-17T07:03:08.300Z,66.20
2018-05-17T07:05:36.596Z,67.50
2018-05-17T07:08:04.869Z,68.60
2018-05-17T07:10:33.222Z,67.60
2018-05-17T07:13:01.424Z,67.10
2018-05-17T07:15:29.679Z,66.80
2018-05-17T07:17:58.063Z,66.40
2018-05-17T07:20:26.196Z,66.40
2018-05-17T07:22:55.243Z,65.80
2018-05-17T07:25:23.507Z,65.80
2018-05-17T07:27:51.901Z,65.40
2018-05-17T07:30:20.170Z,64.80
2018-05-17T07:32:48.443Z,63.80
2018-05-17T07:35:16.724Z,63.20
2018-05-17T07:37:44.989Z,62.90
2018-05-17T07:40:13.285Z,64.40
2018-05-17T07:42:41.537Z,65.00
2018-05-17T07:45:10.610Z,67.10
2018-05-17T07:47:38.852Z,67.60
2018-05-17T07:50:07.226Z,68.10
2018-05-17T07:52:35.476Z,68.80
2018-05-17T07:55:03.728Z,69.20
2018-05-17T07:57:32.652Z,69.70
2018-05-17T08:00:00.917Z,70.00
2018-05-17T08:02:29.172Z,70.60
2018-05-17T08:04:57.459Z,71.00
2018-05-17T08:07:25.735Z,72.20
2018-05-17T08:09:54.032Z,72.80
2018-05-17T08:12:22.297Z,72.30
2018-05-17T08:14:50.544Z,71.60
2018-05-17T08:17:18.836Z,70.40
2018-05-17T08:19:47.085Z,70.00
2018-05-17T08:22:15.387Z,68.90
2018-05-17T08:24:43.672Z,67.90
2018-05-17T08:27:11.957Z,66.80
2018-05-17T08:29:40.216Z,67.60
2018-05-17T08:32:08.481Z,68.60
2018-05-17T08:34:36.734Z,69.30
2018-05-17T08:37:05.049Z,69.50
2018-05-17T08:39:33.305Z,69.30
2018-05-17T08:42:01.568Z,69.80
2018-05-17T08:44:29.821Z,70.80
2018-05-17T08:46:58.840Z,71.40
2018-05-17T08:49:27.145Z,71.40
2018-05-17T08:51:55.400Z,71.70
2018-05-17T08:54:23.704Z,71.20
2018-05-17T08:56:52.670Z,72.30
2018-05-17T08:59:20.925Z,72.30
2018-05-17T09:01:49.188Z,71.70
2018-05-17T09:04:18.228Z,70.50
2018-05-17T09:06:46.505Z,70.50
2018-05-17T09:09:14.768Z,68.90
2018-05-17T09:11:43.016Z,68.00
2018-05-17T09:14:11.333Z,66.20
2018-05-17T09:16:39.626Z,63.70
2018-05-17T09:19:07.975Z,61.10
2018-05-17T09:21:36.224Z,59.00
2018-05-17T09:24:04.489Z,56.70
2018-05-17T09:26:33.487Z,56.50
2018-05-17T09:29:01.804Z,56.50
2018-05-17T09:31:30.048Z,58.60
2018-05-17T09:33:58.348Z,59.30
2018-05-17T09:36:26.602Z,62.10
2018-05-17T09:38:54.857Z,63.20
2018-05-17T09:41:23.976Z,60.00
2018-05-17T09:43:52.128Z,60.00
2018-05-17T09:46:21.160Z,58.70
2018-05-17T09:48:49.440Z,58.70
2018-05-17T09:51:17.684Z,59.70
2018-05-17T09:53:45.939Z,58.40
2018-05-17T09:56:14.975Z,57.50
2018-05-17T09:58:43.262Z,58.10
2018-05-17T10:01:11.537Z,57.40
2018-05-17T10:03:39.791Z,56.30
2018-05-17T10:06:08.081Z,56.80
2018-05-17T10:08:36.330Z,58.20
2018-05-17T10:11:04.628Z,57.80
2018-05-17T10:13:32.907Z,57.90
2018-05-17T10:16:01.158Z,57.90
2018-05-17T10:18:29.420Z,57.60
2018-05-17T10:20:58.464Z,56.10
2018-05-17T10:23:26.727Z,56.10
2018-05-17T10:25:54.999Z,55.50
2018-05-17T10:28:23.252Z,56.90
2018-05-17T10:30:51.495Z,57.10
2018-05-17T10:33:20.540Z,59.00
2018-05-17T10:35:48.791Z,58.80
2018-05-17T10:38:17.092Z,59.60
2018-05-17T10:40:45.332Z,59.30
2018-05-17T10:43:13.641Z,59.90
2018-05-17T10:45:41.919Z,61.10
2018-05-17T10:48:10.177Z,61.20
2018-05-17T10:50:38.463Z,60.70
2018-05-17T10:53:06.715Z,60.90
2018-05-17T10:55:34.991Z,62.10
2018-05-17T10:58:04.000Z,60.10
2018-05-17T11:00:32.254Z,60.10
2018-05-17T11:03:00.564Z,60.80
2018-05-17T11:05:28.828Z,61.10
2018-05-17T11:07:57.085Z,60.80
2018-05-17T11:10:25.392Z,61.10
2018-05-17T11:12:53.659Z,62.60
2018-05-17T11:15:21.955Z,62.90
2018-05-17T11:17:50.223Z,63.30
2018-05-17T11:20:18.531Z,62.70
2018-05-17T11:22:46.755Z,63.10
2018-05-17T11:25:15.012Z,63.20
2018-05-17T11:27:43.256Z,63.00
2018-05-17T11:30:11.596Z,63.60
2018-05-17T11:32:39.852Z,64.70
2018-05-17T11:35:08.121Z,62.70
2018-05-17T11:37:36.372Z,64.20
2018-05-17T11:40:05.399Z,63.10
2018-05-17T11:42:33.659Z,63.10
2018-05-17T11:45:01.959Z,64.10
2018-05-17T11:47:30.235Z,64.20
2018-05-17T11:49:59.331Z,64.60
2018-05-17T11:52:27.599Z,64.60
2018-05-17T11:54:55.883Z,62.70
2018-05-17T11:57:24.164Z,64.10
2018-05-17T11:59:52.440Z,65.00
2018-05-17T12:02:21.027Z,65.40
2018-05-17T12:04:49.284Z,66.80
2018-05-17T12:07:17.609Z,64.70
2018-05-17T12:09:45.844Z,63.50
2018-05-17T12:12:14.161Z,62.60
2018-05-17T12:14:42.496Z,63.70
2018-05-17T12:17:10.753Z,65.10
2018-05-17T12:19:39.004Z,65.30
2018-05-17T12:22:07.325Z,65.20
2018-05-17T12:24:35.581Z,65.70
2018-05-17T12:27:03.872Z,65.10
2018-05-17T12:29:32.145Z,65.50
2018-05-17T12:32:00.452Z,65.50
2018-05-17T12:34:29.225Z,64.30
2018-05-17T12:36:57.491Z,63.90
2018-05-17T12:39:25.801Z,65.00
2018-05-17T12:41:54.049Z,65.50
2018-05-17T12:44:22.305Z,64.90
2018-05-17T12:46:50.564Z,65.80
2018-05-17T12:49:18.904Z,66.50
2018-05-17T12:51:47.240Z,65.20
2018-05-17T12:54:15.492Z,65.10
2018-05-17T12:56:43.880Z,65.30
2018-05-17T12:59:12.062Z,65.80
2018-05-17T13:01:40.315Z,65.00
2018-05-17T13:04:08.585Z,64.90
2018-05-17T13:06:36.848Z,64.00
2018-05-17T13:09:05.869Z,64.80
2018-05-17T13:11:34.306Z,64.70
2018-05-17T13:14:02.540Z,65.40
2018-05-17T13:16:30.800Z,65.70
2018-05-17T13:18:59.082Z,64.60
2018-05-17T13:21:27.396Z,63.90
2018-05-17T13:23:56.680Z,63.90
2018-05-17T13:26:25.048Z,62.30
2018-05-17T13:28:53.301Z,62.70
2018-05-17T13:31:21.609Z,63.30
2018-05-17T13:33:49.888Z,63.30
2018-05-17T13:36:18.119Z,63.70
2018-05-17T13:38:46.433Z,63.00
2018-05-17T13:41:14.687Z,63.50
2018-05-17T13:43:42.955Z,62.20
2018-05-17T13:46:11.192Z,62.20
2018-05-17T13:48:39.546Z,63.90
2018-05-17T13:51:07.799Z,63.00
2018-05-17T13:53:36.093Z,62.50
2018-05-17T13:56:04.351Z,60.90
2018-05-17T13:58:32.627Z,60.10
2018-05-17T14:01:00.919Z,61.30
2018-05-17T14:03:29.173Z,62.80
2018-05-17T14:05:58.699Z,63.20
2018-05-17T14:08:26.928Z,62.80
2018-05-17T14:10:55.952Z,63.20
2018-05-17T14:13:24.235Z,63.20
2018-05-17T14:15:52.550Z,63.40
2018-05-17T14:18:20.901Z,62.80
2018-05-17T14:20:49.155Z,62.80
2018-05-17T14:23:18.289Z,63.00
2018-05-17T14:25:46.541Z,62.80
2018-05-17T14:28:14.812Z,62.20
2018-05-17T14:30:43.056Z,62.40
2018-05-17T14:33:11.370Z,63.50
2018-05-17T14:35:39.615Z,63.80
2018-05-17T14:38:07.867Z,61.70
2018-05-17T14:40:36.893Z,63.00
2018-05-17T14:43:05.145Z,63.00
2018-05-17T14:45:34.159Z,62.90
2018-05-17T14:48:02.448Z,62.90
2018-05-17T14:50:30.702Z,64.30
2018-05-17T14:52:59.010Z,64.50
2018-05-17T14:55:27.288Z,61.80
2018-05-17T14:57:55.549Z,61.50
2018-05-17T15:00:23.814Z,62.50
2018-05-17T15:02:52.066Z,62.20
2018-05-17T15:05:21.092Z,60.50
2018-05-17T15:07:49.363Z,60.50
2018-05-17T15:10:17.651Z,61.00
2018-05-17T15:12:45.947Z,61.40
2018-05-17T15:15:14.337Z,61.00
2018-05-17T15:17:42.558Z,59.70
2018-05-17T15:20:10.815Z,59.60
2018-05-17T15:22:39.066Z,60.20
2018-05-17T15:25:07.322Z,60.40
2018-05-17T15:27:35.620Z,61.60
2018-05-17T15:30:03.882Z,60.10
2018-05-17T15:32:32.219Z,60.90
2018-05-17T15:35:00.500Z,60.60
2018-05-17T15:37:28.781Z,61.00
2018-05-17T15:39:57.027Z,61.70
2018-05-17T15:42:25.267Z,61.00
2018-05-17T15:44:53.519Z,60.80
2018-05-17T15:47:21.772Z,60.10
2018-05-17T15:49:50.056Z,60.00
2018-05-17T15:52:18.295Z,60.90
2018-05-17T15:54:46.552Z,62.00
2018-05-17T15:57:15.587Z,62.50
2018-05-17T15:59:43.872Z,62.80
2018-05-17T16:02:12.659Z,62.40
2018-05-17T16:04:40.912Z,62.60
2018-05-17T16:07:09.199Z,63.10
2018-05-17T16:09:37.490Z,63.40
2018-05-17T16:12:05.770Z,63.30
2018-05-17T16:14:34.028Z,63.50
2018-05-17T16:17:02.260Z,64.00
2018-05-17T16:19:31.312Z,64.90
2018-05-17T16:21:59.594Z,64.90
2018-05-17T16:24:27.857Z,64.30
2018-05-17T16:26:56.140Z,64.50
2018-05-17T16:29:24.387Z,64.50
2018-05-17T16:31:52.647Z,64.00
2018-05-17T16:34:20.948Z,64.60
2018-05-17T16:36:49.207Z,64.60
2018-05-17T16:39:17.452Z,64.80
2018-05-17T16:41:46.495Z,65.50
2018-05-17T16:44:14.768Z,65.50
2018-05-17T16:46:43.027Z,65.30
2018-05-17T16:49:11.281Z,65.70
2018-05-17T16:51:40.328Z,66.30
2018-05-17T16:54:08.639Z,66.20
2018-05-17T16:56:36.819Z,66.50
2018-05-17T16:59:05.836Z,65.40
2018-05-17T17:01:34.095Z,65.40
2018-05-17T17:04:03.127Z,66.50
2018-05-17T17:06:31.404Z,66.40
2018-05-17T17:08:59.684Z,67.00
2018-05-17T17:11:27.955Z,67.70
2018-05-17T17:13:56.216Z,68.10
2018-05-17T17:16:24.487Z,67.80
2018-05-17T17:18:52.744Z,67.90
2018-05-17T17:21:21.899Z,67.80
2018-05-17T17:23:50.206Z,67.70
2018-05-17T17:26:18.392Z,67.80
2018-05-17T17:28:46.708Z,68.60
2018-05-17T17:31:14.985Z,68.40
2018-05-17T17:33:43.229Z,68.90
2018-05-17T17:36:11.506Z,69.10
2018-05-17T17:38:40.500Z,70.00
2018-05-17T17:41:08.756Z,69.90
2018-05-17T17:43:37.784Z,70.80
2018-05-17T17:46:06.071Z,70.80
2018-05-17T17:48:34.413Z,71.40
2018-05-17T17:51:02.815Z,71.70
2018-05-17T17:53:31.073Z,72.30
2018-05-17T17:55:59.337Z,73.00
2018-05-17T17:58:27.652Z,73.70
2018-05-17T18:00:55.925Z,74.30
2018-05-17T18:03:24.195Z,74.70
2018-05-17T18:05:52.467Z,75.20
2018-05-17T18:08:21.005Z,76.00
2018-05-17T18:10:49.231Z,76.70
2018-05-17T18:13:17.489Z,77.10
2018-05-17T18:15:45.779Z,77.70
2018-05-17T18:18:14.841Z,78.20
2018-05-17T18:20:43.084Z,78.90
2018-05-17T18:23:11.331Z,79.30
2018-05-17T18:25:39.578Z,79.50
2018-05-17T18:28:07.890Z,79.90
2018-05-17T18:30:36.146Z,79.80
2018-05-17T18:33:04.395Z,80.10
2018-05-17T18:35:32.647Z,80.60
2018-05-17T18:38:01.695Z,81.60
2018-05-17T18:40:29.935Z,81.50
2018-05-17T18:42:58.192Z,82.10
2018-05-17T18:45:27.199Z,83.20
2018-05-17T18:47:55.503Z,83.20
2018-05-17T18:50:23.757Z,83.50
2018-05-17T18:52:54.853Z,84.30
2018-05-17T18:55:24.647Z,85.50
2018-05-17T18:57:52.899Z,85.50
2018-05-17T19:00:21.173Z,86.10
2018-05-17T19:02:49.494Z,86.60
2018-05-17T19:05:18.456Z,87.50
2018-05-17T19:07:46.838Z,87.40
2018-05-17T19:10:15.079Z,87.80
2018-05-17T19:12:43.350Z,88.30
2018-05-17T19:15:11.612Z,88.80
2018-05-17T19:17:40.645Z,88.90
2018-05-17T19:20:08.919Z,88.90
2018-05-17T19:22:37.173Z,88.90
2018-05-17T19:25:05.449Z,89.40
2018-05-17T19:27:33.699Z,89.50
2018-05-17T19:30:02.739Z,89.80
2018-05-17T19:32:30.997Z,89.80
2018-05-17T19:34:59.291Z,89.80
2018-05-17T19:37:27.617Z,90.00
2018-05-17T19:39:55.816Z,90.10
2018-05-17T19:42:24.091Z,90.20
2018-05-17T19:44:52.382Z,90.40
2018-05-17T19:47:20.754Z,90.40
2018-05-17T19:49:48.956Z,90.50
2018-05-17T19:52:17.204Z,90.40
2018-05-17T19:54:45.459Z,90.30
2018-05-17T19:57:13.716Z,90.20
2018-05-17T19:59:42.978Z,90.20
2018-05-17T20:02:11.219Z,90.20
2018-05-17T20:04:39.562Z,90.20
2018-05-17T20:07:07.806Z,90.20
2018-05-17T20:09:36.077Z,90.20
2018-05-17T20:12:04.332Z,90.20
2018-05-17T20:14:32.601Z,90.20
2018-05-17T20:17:00.912Z,90.00
2018-05-17T20:19:29.173Z,89.90
2018-05-17T20:21:57.426Z,89.30
2018-05-17T20:24:25.719Z,88.80
2018-05-17T20:26:53.985Z,88.70
2018-05-17T20:29:22.387Z,88.80
2018-05-17T20:31:50.507Z,88.90
2018-05-17T20:34:19.544Z,88.90
2018-05-17T20:36:47.869Z,89.00
2018-05-17T20:39:16.100Z,88.90
2018-05-17T20:41:44.356Z,89.10
2018-05-17T20:44:12.655Z,88.80
2018-05-17T20:46:40.929Z,89.20
2018-05-17T20:49:09.196Z,89.50
2018-05-17T20:51:37.459Z,89.60
2018-05-17T20:54:05.754Z,89.70
2018-05-17T20:56:34.021Z,89.90
2018-05-17T20:59:02.284Z,89.70
2018-05-17T21:01:30.574Z,89.20
2018-05-17T21:03:58.849Z,88.90
2018-05-17T21:06:27.128Z,88.50
2018-05-17T21:08:55.380Z,89.00
2018-05-17T21:11:23.681Z,89.90
2018-05-17T21:13:51.932Z,89.80
2018-05-17T21:16:20.231Z,88.70
2018-05-17T21:18:48.492Z,88.30
2018-05-17T21:21:16.755Z,87.70
2018-05-17T21:23:45.016Z,87.60
2018-05-17T21:26:13.284Z,88.10
2018-05-17T21:28:42.318Z,88.30
2018-05-17T21:31:10.579Z,88.30
2018-05-17T21:33:38.869Z,88.50
2018-05-17T21:36:07.148Z,88.50
2018-05-17T21:38:35.427Z,88.70
2018-05-17T21:41:03.695Z,88.40
2018-05-17T21:43:31.954Z,88.60
2018-05-17T21:46:00.251Z,88.80
2018-05-17T21:48:29.804Z,88.90
2018-05-17T21:50:58.065Z,88.90
2018-05-17T21:53:26.353Z,89.20
2018-05-17T21:55:55.388Z,89.20
2018-05-17T21:58:23.676Z,89.20
2018-05-17T22:00:51.962Z,89.30
2018-05-17T22:03:20.214Z,88.60
2018-05-17T22:05:48.479Z,88.40
2018-05-17T22:08:16.797Z,88.50
2018-05-17T22:10:45.055Z,88.80
2018-05-17T22:13:13.312Z,88.70
2018-05-17T22:15:41.560Z,88.90
2018-05-17T22:18:10.585Z,89.10
2018-05-17T22:20:38.884Z,89.10
2018-05-17T22:23:07.160Z,89.10
2018-05-17T22:25:35.428Z,89.10
2018-05-17T22:28:03.712Z,89.30
2018-05-17T22:30:32.668Z,89.30
2018-05-17T22:33:00.925Z,89.10
2018-05-17T22:35:29.973Z,88.70
2018-05-17T22:37:58.233Z,88.70
2018-05-17T22:40:26.521Z,88.90
2018-05-17T22:42:54.813Z,88.90
2018-05-17T22:45:23.090Z,88.90
2018-05-17T22:47:51.453Z,88.80
2018-05-17T22:50:19.718Z,89.00
2018-05-17T22:52:47.976Z,89.00
2018-05-17T22:55:16.242Z,88.80
2018-05-17T22:57:56.361Z,88.50
2018-05-17T23:00:24.636Z,88.60
2018-05-17T23:02:52.990Z,88.60
2018-05-17T23:05:21.253Z,88.60
2018-05-17T23:07:49.520Z,88.40
2018-05-17T23:10:17.772Z,88.60
2018-05-17T23:12:46.045Z,88.50
2018-05-17T23:15:14.313Z,88.50
2018-05-17T23:17:42.631Z,88.50
2018-05-17T23:20:12.274Z,88.40
2018-05-17T23:22:40.635Z,88.50
2018-05-17T23:25:09.002Z,89.40
2018-05-17T23:27:37.357Z,88.70
2018-05-17T23:30:05.612Z,88.90
2018-05-17T23:32:33.869Z,89.10
2018-05-17T23:35:02.921Z,89.20
2018-05-17T23:37:31.194Z,89.10
2018-05-17T23:40:11.553Z,89.30
2018-05-17T23:42:39.816Z,89.50
2018-05-17T23:45:08.082Z,89.50
2018-05-17T23:47:36.386Z,89.60
2018-05-17T23:50:04.640Z,89.60
2018-05-17T23:52:32.929Z,89.70
2018-05-17T23:55:01.197Z,89.20
2018-05-17T23:57:29.481Z,89.30
2018-05-17T23:59:57.748Z,89.40
